sensor_id;sensor_type;location;lat;lon;timestamp;temperature;humidity
81140;SHT31;70624;51.978;5.656;2023-12-20T00:02:20;9.1;75.1
81140;SHT31;70624;51.978;5.656;2023-12-20T00:04:48;9.1;75.3
81140;SHT31;70624;51.978;5.656;2023-12-20T00:07:17;9.1;75.6
81140;SHT31;70624;51.978;5.656;2023-12-20T00:09:46;9.1;75.9
81140;SHT31;70624;51.978;5.656;2023-12-20T00:12:14;9.1;75.6
81140;SHT31;70624;51.978;5.656;2023-12-20T00:14:42;9.1;75.4
81140;SHT31;70624;51.978;5.656;2023-12-20T00:17:11;9.1;75.3
81140;SHT31;70624;51.978;5.656;2023-12-20T00:19:40;9.1;75.1
81140;SHT31;70624;51.978;5.656;2023-12-20T00:22:11;9.1;75.2
81140;SHT31;70624;51.978;5.656;2023-12-20T00:24:41;9.1;75.0
81140;SHT31;70624;51.978;5.656;2023-12-20T00:27:09;9.0;74.9
81140;SHT31;70624;51.978;5.656;2023-12-20T00:29:38;9.0;74.9
81140;SHT31;70624;51.978;5.656;2023-12-20T00:32:09;9.0;74.8
81140;SHT31;70624;51.978;5.656;2023-12-20T00:34:38;9.0;74.7
81140;SHT31;70624;51.978;5.656;2023-12-20T00:37:06;8.9;74.8
81140;SHT31;70624;51.978;5.656;2023-12-20T00:39:35;8.9;74.8
81140;SHT31;70624;51.978;5.656;2023-12-20T00:42:04;8.9;74.7
81140;SHT31;70624;51.978;5.656;2023-12-20T00:44:32;8.9;74.5
81140;SHT31;70624;51.978;5.656;2023-12-20T00:47:01;8.8;74.5
81140;SHT31;70624;51.978;5.656;2023-12-20T00:49:30;8.8;74.7
81140;SHT31;70624;51.978;5.656;2023-12-20T00:52:12;8.8;74.7
81140;SHT31;70624;51.978;5.656;2023-12-20T00:54:44;8.7;74.6
81140;SHT31;70624;51.978;5.656;2023-12-20T00:57:16;8.7;74.5
81140;SHT31;70624;51.978;5.656;2023-12-20T00:59:45;8.7;74.4
81140;SHT31;70624;51.978;5.656;2023-12-20T01:02:14;8.6;74.4
81140;SHT31;70624;51.978;5.656;2023-12-20T01:04:42;8.6;74.8
81140;SHT31;70624;51.978;5.656;2023-12-20T01:07:11;8.6;74.8
81140;SHT31;70624;51.978;5.656;2023-12-20T01:09:40;8.5;74.9
81140;SHT31;70624;51.978;5.656;2023-12-20T01:12:11;8.5;74.9
81140;SHT31;70624;51.978;5.656;2023-12-20T01:14:39;8.5;74.9
81140;SHT31;70624;51.978;5.656;2023-12-20T01:17:08;8.4;75.2
81140;SHT31;70624;51.978;5.656;2023-12-20T01:19:37;8.4;75.2
81140;SHT31;70624;51.978;5.656;2023-12-20T01:22:05;8.4;75.2
81140;SHT31;70624;51.978;5.656;2023-12-20T01:24:36;8.3;75.3
81140;SHT31;70624;51.978;5.656;2023-12-20T01:27:04;8.3;75.3
81140;SHT31;70624;51.978;5.656;2023-12-20T01:29:33;8.3;75.5
81140;SHT31;70624;51.978;5.656;2023-12-20T01:32:01;8.2;75.6
81140;SHT31;70624;51.978;5.656;2023-12-20T01:34:30;8.2;75.7
81140;SHT31;70624;51.978;5.656;2023-12-20T01:36:58;8.2;75.7
81140;SHT31;70624;51.978;5.656;2023-12-20T01:39:27;8.1;75.9
81140;SHT31;70624;51.978;5.656;2023-12-20T01:41:55;8.1;75.9
81140;SHT31;70624;51.978;5.656;2023-12-20T01:44:24;8.1;76.2
81140;SHT31;70624;51.978;5.656;2023-12-20T01:46:53;8.1;76.3
81140;SHT31;70624;51.978;5.656;2023-12-20T01:49:22;8.0;76.5
81140;SHT31;70624;51.978;5.656;2023-12-20T01:51:52;8.0;76.6
81140;SHT31;70624;51.978;5.656;2023-12-20T01:54:21;8.0;76.7
81140;SHT31;70624;51.978;5.656;2023-12-20T01:56:51;8.0;76.9
81140;SHT31;70624;51.978;5.656;2023-12-20T01:59:21;8.0;77.0
81140;SHT31;70624;51.978;5.656;2023-12-20T02:01:50;8.0;76.9
81140;SHT31;70624;51.978;5.656;2023-12-20T02:04:19;8.0;77.3
81140;SHT31;70624;51.978;5.656;2023-12-20T02:06:50;8.0;77.1
81140;SHT31;70624;51.978;5.656;2023-12-20T02:09:21;8.0;77.7
81140;SHT31;70624;51.978;5.656;2023-12-20T02:11:50;8.0;78.2
81140;SHT31;70624;51.978;5.656;2023-12-20T02:14:19;8.0;78.1
81140;SHT31;70624;51.978;5.656;2023-12-20T02:16:48;8.1;77.6
81140;SHT31;70624;51.978;5.656;2023-12-20T02:19:17;8.1;77.7
81140;SHT31;70624;51.978;5.656;2023-12-20T02:21:47;8.1;77.8
81140;SHT31;70624;51.978;5.656;2023-12-20T02:24:16;8.1;77.8
81140;SHT31;70624;51.978;5.656;2023-12-20T02:26:46;8.1;77.8
81140;SHT31;70624;51.978;5.656;2023-12-20T02:29:14;8.1;77.9
81140;SHT31;70624;51.978;5.656;2023-12-20T02:31:43;8.2;78.1
81140;SHT31;70624;51.978;5.656;2023-12-20T02:34:11;8.2;78.0
81140;SHT31;70624;51.978;5.656;2023-12-20T02:36:40;8.2;77.6
81140;SHT31;70624;51.978;5.656;2023-12-20T02:39:08;8.3;77.4
81140;SHT31;70624;51.978;5.656;2023-12-20T02:41:37;8.3;77.6
81140;SHT31;70624;51.978;5.656;2023-12-20T02:44:05;8.3;77.9
81140;SHT31;70624;51.978;5.656;2023-12-20T02:46:33;8.4;77.8
81140;SHT31;70624;51.978;5.656;2023-12-20T02:49:02;8.4;77.5
81140;SHT31;70624;51.978;5.656;2023-12-20T02:51:30;8.4;77.6
81140;SHT31;70624;51.978;5.656;2023-12-20T02:53:59;8.4;77.0
81140;SHT31;70624;51.978;5.656;2023-12-20T02:56:27;8.5;76.5
81140;SHT31;70624;51.978;5.656;2023-12-20T02:58:55;8.5;76.2
81140;SHT31;70624;51.978;5.656;2023-12-20T03:01:24;8.5;76.1
81140;SHT31;70624;51.978;5.656;2023-12-20T03:03:52;8.5;75.8
81140;SHT31;70624;51.978;5.656;2023-12-20T03:06:21;8.5;75.7
81140;SHT31;70624;51.978;5.656;2023-12-20T03:08:49;8.4;75.7
81140;SHT31;70624;51.978;5.656;2023-12-20T03:11:18;8.4;75.6
81140;SHT31;70624;51.978;5.656;2023-12-20T03:13:46;8.4;75.6
81140;SHT31;70624;51.978;5.656;2023-12-20T03:16:15;8.4;75.8
81140;SHT31;70624;51.978;5.656;2023-12-20T03:18:46;8.4;76.3
81140;SHT31;70624;51.978;5.656;2023-12-20T03:21:15;8.4;76.5
81140;SHT31;70624;51.978;5.656;2023-12-20T03:23:43;8.3;76.6
81140;SHT31;70624;51.978;5.656;2023-12-20T03:26:12;8.3;76.6
81140;SHT31;70624;51.978;5.656;2023-12-20T03:28:42;8.3;76.7
81140;SHT31;70624;51.978;5.656;2023-12-20T03:31:11;8.3;76.9
81140;SHT31;70624;51.978;5.656;2023-12-20T03:33:41;8.3;77.5
81140;SHT31;70624;51.978;5.656;2023-12-20T03:36:10;8.3;77.5
81140;SHT31;70624;51.978;5.656;2023-12-20T03:38:38;8.3;77.2
81140;SHT31;70624;51.978;5.656;2023-12-20T03:41:07;8.3;76.9
81140;SHT31;70624;51.978;5.656;2023-12-20T03:43:36;8.3;77.2
81140;SHT31;70624;51.978;5.656;2023-12-20T03:46:05;8.3;77.4
81140;SHT31;70624;51.978;5.656;2023-12-20T03:48:33;8.3;77.2
81140;SHT31;70624;51.978;5.656;2023-12-20T03:51:01;8.3;77.0
81140;SHT31;70624;51.978;5.656;2023-12-20T03:53:30;8.3;76.9
81140;SHT31;70624;51.978;5.656;2023-12-20T03:55:59;8.3;77.3
81140;SHT31;70624;51.978;5.656;2023-12-20T03:58:27;8.3;77.6
81140;SHT31;70624;51.978;5.656;2023-12-20T04:00:56;8.3;77.5
81140;SHT31;70624;51.978;5.656;2023-12-20T04:03:24;8.4;77.1
81140;SHT31;70624;51.978;5.656;2023-12-20T04:05:52;8.4;76.9
81140;SHT31;70624;51.978;5.656;2023-12-20T04:08:21;8.4;76.8
81140;SHT31;70624;51.978;5.656;2023-12-20T04:10:50;8.4;76.9
81140;SHT31;70624;51.978;5.656;2023-12-20T04:13:18;8.4;76.9
81140;SHT31;70624;51.978;5.656;2023-12-20T04:15:47;8.4;77.3
81140;SHT31;70624;51.978;5.656;2023-12-20T04:18:17;8.4;77.3
81140;SHT31;70624;51.978;5.656;2023-12-20T04:20:45;8.4;77.1
81140;SHT31;70624;51.978;5.656;2023-12-20T04:23:15;8.4;77.2
81140;SHT31;70624;51.978;5.656;2023-12-20T04:25:44;8.4;77.3
81140;SHT31;70624;51.978;5.656;2023-12-20T04:28:13;8.4;77.4
81140;SHT31;70624;51.978;5.656;2023-12-20T04:30:42;8.4;77.6
81140;SHT31;70624;51.978;5.656;2023-12-20T04:33:11;8.5;77.7
81140;SHT31;70624;51.978;5.656;2023-12-20T04:35:39;8.5;77.7
81140;SHT31;70624;51.978;5.656;2023-12-20T04:38:09;8.5;77.7
81140;SHT31;70624;51.978;5.656;2023-12-20T04:40:37;8.5;77.6
81140;SHT31;70624;51.978;5.656;2023-12-20T04:43:07;8.6;77.3
81140;SHT31;70624;51.978;5.656;2023-12-20T04:45:36;8.6;77.6
81140;SHT31;70624;51.978;5.656;2023-12-20T04:48:07;8.6;77.9
81140;SHT31;70624;51.978;5.656;2023-12-20T04:50:36;8.6;77.8
81140;SHT31;70624;51.978;5.656;2023-12-20T04:53:05;8.7;77.6
81140;SHT31;70624;51.978;5.656;2023-12-20T04:55:33;8.7;77.5
81140;SHT31;70624;51.978;5.656;2023-12-20T04:58:01;8.8;77.2
81140;SHT31;70624;51.978;5.656;2023-12-20T05:00:30;8.8;77.2
81140;SHT31;70624;51.978;5.656;2023-12-20T05:02:58;8.8;77.0
81140;SHT31;70624;51.978;5.656;2023-12-20T05:05:27;8.9;76.5
81140;SHT31;70624;51.978;5.656;2023-12-20T05:07:55;8.9;76.7
81140;SHT31;70624;51.978;5.656;2023-12-20T05:10:24;8.9;76.6
81140;SHT31;70624;51.978;5.656;2023-12-20T05:12:53;8.9;76.8
81140;SHT31;70624;51.978;5.656;2023-12-20T05:15:22;8.9;76.4
81140;SHT31;70624;51.978;5.656;2023-12-20T05:17:50;9.0;76.6
81140;SHT31;70624;51.978;5.656;2023-12-20T05:20:18;9.0;76.2
81140;SHT31;70624;51.978;5.656;2023-12-20T05:22:47;9.0;76.3
81140;SHT31;70624;51.978;5.656;2023-12-20T05:25:15;9.0;76.6
81140;SHT31;70624;51.978;5.656;2023-12-20T05:27:44;9.1;76.2
81140;SHT31;70624;51.978;5.656;2023-12-20T05:30:13;9.1;75.9
81140;SHT31;70624;51.978;5.656;2023-12-20T05:32:42;9.1;75.9
81140;SHT31;70624;51.978;5.656;2023-12-20T05:35:12;9.1;75.9
81140;SHT31;70624;51.978;5.656;2023-12-20T05:37:41;9.2;75.9
81140;SHT31;70624;51.978;5.656;2023-12-20T05:40:10;9.2;75.6
81140;SHT31;70624;51.978;5.656;2023-12-20T05:42:39;9.2;75.2
81140;SHT31;70624;51.978;5.656;2023-12-20T05:45:09;9.2;75.5
81140;SHT31;70624;51.978;5.656;2023-12-20T05:47:37;9.2;75.8
81140;SHT31;70624;51.978;5.656;2023-12-20T05:50:06;9.3;75.8
81140;SHT31;70624;51.978;5.656;2023-12-20T05:52:35;9.4;75.6
81140;SHT31;70624;51.978;5.656;2023-12-20T05:55:04;9.4;75.0
81140;SHT31;70624;51.978;5.656;2023-12-20T05:57:32;9.5;74.3
81140;SHT31;70624;51.978;5.656;2023-12-20T06:00:01;9.5;74.5
81140;SHT31;70624;51.978;5.656;2023-12-20T06:02:30;9.5;74.3
81140;SHT31;70624;51.978;5.656;2023-12-20T06:04:59;9.6;74.1
81140;SHT31;70624;51.978;5.656;2023-12-20T06:07:28;9.6;74.1
81140;SHT31;70624;51.978;5.656;2023-12-20T06:09:56;9.6;73.8
81140;SHT31;70624;51.978;5.656;2023-12-20T06:12:25;9.6;73.4
81140;SHT31;70624;51.978;5.656;2023-12-20T06:14:57;9.6;73.6
81140;SHT31;70624;51.978;5.656;2023-12-20T06:17:25;9.6;73.5
81140;SHT31;70624;51.978;5.656;2023-12-20T06:19:57;9.6;73.6
81140;SHT31;70624;51.978;5.656;2023-12-20T06:22:26;9.6;73.0
81140;SHT31;70624;51.978;5.656;2023-12-20T06:24:54;9.6;72.5
81140;SHT31;70624;51.978;5.656;2023-12-20T06:27:22;9.6;73.1
81140;SHT31;70624;51.978;5.656;2023-12-20T06:29:51;9.6;73.3
81140;SHT31;70624;51.978;5.656;2023-12-20T06:32:19;9.6;73.2
81140;SHT31;70624;51.978;5.656;2023-12-20T06:34:50;9.6;72.8
81140;SHT31;70624;51.978;5.656;2023-12-20T06:37:18;9.5;73.6
81140;SHT31;70624;51.978;5.656;2023-12-20T06:39:48;9.5;73.5
81140;SHT31;70624;51.978;5.656;2023-12-20T06:42:17;9.5;73.5
81140;SHT31;70624;51.978;5.656;2023-12-20T06:44:45;9.5;73.2
81140;SHT31;70624;51.978;5.656;2023-12-20T06:47:15;9.5;73.6
81140;SHT31;70624;51.978;5.656;2023-12-20T06:49:45;9.5;73.7
81140;SHT31;70624;51.978;5.656;2023-12-20T06:52:14;9.5;73.7
81140;SHT31;70624;51.978;5.656;2023-12-20T06:54:43;9.5;73.5
81140;SHT31;70624;51.978;5.656;2023-12-20T06:57:11;9.5;73.3
81140;SHT31;70624;51.978;5.656;2023-12-20T06:59:41;9.5;73.3
81140;SHT31;70624;51.978;5.656;2023-12-20T07:02:10;9.5;73.0
81140;SHT31;70624;51.978;5.656;2023-12-20T07:04:41;9.5;73.6
81140;SHT31;70624;51.978;5.656;2023-12-20T07:07:09;9.5;73.4
81140;SHT31;70624;51.978;5.656;2023-12-20T07:09:38;9.5;73.5
81140;SHT31;70624;51.978;5.656;2023-12-20T07:12:09;9.5;73.6
81140;SHT31;70624;51.978;5.656;2023-12-20T07:14:37;9.5;73.5
81140;SHT31;70624;51.978;5.656;2023-12-20T07:17:05;9.5;73.8
81140;SHT31;70624;51.978;5.656;2023-12-20T07:19:39;9.5;73.7
81140;SHT31;70624;51.978;5.656;2023-12-20T07:22:08;9.5;73.7
81140;SHT31;70624;51.978;5.656;2023-12-20T07:24:36;9.4;74.2
81140;SHT31;70624;51.978;5.656;2023-12-20T07:27:05;9.4;73.7
81140;SHT31;70624;51.978;5.656;2023-12-20T07:29:34;9.5;73.5
81140;SHT31;70624;51.978;5.656;2023-12-20T07:32:02;9.5;76.4
81140;SHT31;70624;51.978;5.656;2023-12-20T07:34:31;9.5;75.3
81140;SHT31;70624;51.978;5.656;2023-12-20T07:36:59;9.5;75.2
81140;SHT31;70624;51.978;5.656;2023-12-20T07:39:27;9.5;74.4
81140;SHT31;70624;51.978;5.656;2023-12-20T07:41:58;9.6;74.2
81140;SHT31;70624;51.978;5.656;2023-12-20T07:44:26;9.6;73.5
81140;SHT31;70624;51.978;5.656;2023-12-20T07:46:54;9.6;73.2
81140;SHT31;70624;51.978;5.656;2023-12-20T07:49:24;9.6;73.5
81140;SHT31;70624;51.978;5.656;2023-12-20T07:51:52;9.7;73.4
81140;SHT31;70624;51.978;5.656;2023-12-20T07:54:23;9.7;73.9
81140;SHT31;70624;51.978;5.656;2023-12-20T07:56:51;9.8;74.1
81140;SHT31;70624;51.978;5.656;2023-12-20T07:59:20;9.8;72.8
81140;SHT31;70624;51.978;5.656;2023-12-20T08:01:48;9.8;72.7
81140;SHT31;70624;51.978;5.656;2023-12-20T08:04:17;9.8;72.6
81140;SHT31;70624;51.978;5.656;2023-12-20T08:06:45;9.8;72.6
81140;SHT31;70624;51.978;5.656;2023-12-20T08:09:14;9.8;72.3
81140;SHT31;70624;51.978;5.656;2023-12-20T08:11:44;9.8;72.2
81140;SHT31;70624;51.978;5.656;2023-12-20T08:14:13;9.8;72.2
81140;SHT31;70624;51.978;5.656;2023-12-20T08:16:41;9.9;72.8
81140;SHT31;70624;51.978;5.656;2023-12-20T08:19:12;9.9;72.5
81140;SHT31;70624;51.978;5.656;2023-12-20T08:21:41;9.9;72.4
81140;SHT31;70624;51.978;5.656;2023-12-20T08:24:09;9.9;72.4
81140;SHT31;70624;51.978;5.656;2023-12-20T08:26:38;9.9;72.3
81140;SHT31;70624;51.978;5.656;2023-12-20T08:29:06;9.9;72.7
81140;SHT31;70624;51.978;5.656;2023-12-20T08:31:36;9.9;73.1
81140;SHT31;70624;51.978;5.656;2023-12-20T08:34:05;9.9;72.3
81140;SHT31;70624;51.978;5.656;2023-12-20T08:36:33;9.9;72.7
81140;SHT31;70624;51.978;5.656;2023-12-20T08:39:02;9.9;72.5
81140;SHT31;70624;51.978;5.656;2023-12-20T08:41:34;9.9;73.1
81140;SHT31;70624;51.978;5.656;2023-12-20T08:44:03;9.9;73.2
81140;SHT31;70624;51.978;5.656;2023-12-20T08:46:31;9.9;73.0
81140;SHT31;70624;51.978;5.656;2023-12-20T08:49:00;9.9;73.0
81140;SHT31;70624;51.978;5.656;2023-12-20T08:51:28;9.9;73.2
81140;SHT31;70624;51.978;5.656;2023-12-20T08:53:59;9.9;72.8
81140;SHT31;70624;51.978;5.656;2023-12-20T08:56:28;10.0;72.9
81140;SHT31;70624;51.978;5.656;2023-12-20T08:58:56;10.0;72.7
81140;SHT31;70624;51.978;5.656;2023-12-20T09:01:25;10.0;72.8
81140;SHT31;70624;51.978;5.656;2023-12-20T09:03:53;10.0;73.0
81140;SHT31;70624;51.978;5.656;2023-12-20T09:06:23;10.0;72.3
81140;SHT31;70624;51.978;5.656;2023-12-20T09:08:52;10.0;73.0
81140;SHT31;70624;51.978;5.656;2023-12-20T09:11:20;10.0;73.6
81140;SHT31;70624;51.978;5.656;2023-12-20T09:13:49;10.0;73.9
81140;SHT31;70624;51.978;5.656;2023-12-20T09:16:17;10.0;74.0
81140;SHT31;70624;51.978;5.656;2023-12-20T09:18:46;10.0;74.4
81140;SHT31;70624;51.978;5.656;2023-12-20T09:21:15;10.0;74.3
81140;SHT31;70624;51.978;5.656;2023-12-20T09:23:43;10.0;74.3
81140;SHT31;70624;51.978;5.656;2023-12-20T09:26:13;10.0;74.6
81140;SHT31;70624;51.978;5.656;2023-12-20T09:28:42;10.0;74.5
81140;SHT31;70624;51.978;5.656;2023-12-20T09:31:11;10.0;74.2
81140;SHT31;70624;51.978;5.656;2023-12-20T09:33:39;10.0;74.6
81140;SHT31;70624;51.978;5.656;2023-12-20T09:36:08;10.0;75.1
81140;SHT31;70624;51.978;5.656;2023-12-20T09:38:36;10.0;74.8
81140;SHT31;70624;51.978;5.656;2023-12-20T09:41:07;10.0;74.9
81140;SHT31;70624;51.978;5.656;2023-12-20T09:43:37;10.0;75.2
81140;SHT31;70624;51.978;5.656;2023-12-20T09:46:06;10.0;75.1
81140;SHT31;70624;51.978;5.656;2023-12-20T09:48:38;10.0;74.9
81140;SHT31;70624;51.978;5.656;2023-12-20T09:51:07;10.0;74.9
81140;SHT31;70624;51.978;5.656;2023-12-20T09:53:37;10.0;75.1
81140;SHT31;70624;51.978;5.656;2023-12-20T09:56:06;10.0;74.9
81140;SHT31;70624;51.978;5.656;2023-12-20T09:58:38;10.0;75.2
81140;SHT31;70624;51.978;5.656;2023-12-20T10:01:08;10.0;75.6
81140;SHT31;70624;51.978;5.656;2023-12-20T10:03:39;10.0;75.2
81140;SHT31;70624;51.978;5.656;2023-12-20T10:06:10;10.0;74.9
81140;SHT31;70624;51.978;5.656;2023-12-20T10:08:38;10.1;75.0
81140;SHT31;70624;51.978;5.656;2023-12-20T10:11:09;10.1;74.8
81140;SHT31;70624;51.978;5.656;2023-12-20T10:13:41;10.1;74.7
81140;SHT31;70624;51.978;5.656;2023-12-20T10:16:09;10.1;75.0
81140;SHT31;70624;51.978;5.656;2023-12-20T10:18:39;10.2;75.0
81140;SHT31;70624;51.978;5.656;2023-12-20T10:21:07;10.2;74.9
81140;SHT31;70624;51.978;5.656;2023-12-20T10:23:38;10.2;74.8
81140;SHT31;70624;51.978;5.656;2023-12-20T10:26:07;10.2;75.0
81140;SHT31;70624;51.978;5.656;2023-12-20T10:28:36;10.3;74.4
81140;SHT31;70624;51.978;5.656;2023-12-20T10:31:04;10.3;74.7
81140;SHT31;70624;51.978;5.656;2023-12-20T10:33:33;10.3;74.3
81140;SHT31;70624;51.978;5.656;2023-12-20T10:36:01;10.4;74.1
81140;SHT31;70624;51.978;5.656;2023-12-20T10:38:30;10.4;74.3
81140;SHT31;70624;51.978;5.656;2023-12-20T10:40:59;10.4;74.1
81140;SHT31;70624;51.978;5.656;2023-12-20T10:43:32;10.4;74.2
81140;SHT31;70624;51.978;5.656;2023-12-20T10:46:03;10.4;74.0
81140;SHT31;70624;51.978;5.656;2023-12-20T10:48:32;10.5;74.3
81140;SHT31;70624;51.978;5.656;2023-12-20T10:51:01;10.5;74.3
81140;SHT31;70624;51.978;5.656;2023-12-20T10:53:32;10.5;74.1
81140;SHT31;70624;51.978;5.656;2023-12-20T10:56:03;10.6;74.7
81140;SHT31;70624;51.978;5.656;2023-12-20T10:58:33;10.6;73.4
81140;SHT31;70624;51.978;5.656;2023-12-20T11:01:04;10.6;74.1
81140;SHT31;70624;51.978;5.656;2023-12-20T11:03:35;10.7;73.9
81140;SHT31;70624;51.978;5.656;2023-12-20T11:06:10;10.7;73.8
81140;SHT31;70624;51.978;5.656;2023-12-20T11:08:48;10.7;73.3
81140;SHT31;70624;51.978;5.656;2023-12-20T11:11:23;10.8;73.1
81140;SHT31;70624;51.978;5.656;2023-12-20T11:13:59;10.8;72.7
81140;SHT31;70624;51.978;5.656;2023-12-20T11:16:31;10.9;73.0
81140;SHT31;70624;51.978;5.656;2023-12-20T11:19:04;10.9;73.0
81140;SHT31;70624;51.978;5.656;2023-12-20T11:21:33;10.9;72.3
81140;SHT31;70624;51.978;5.656;2023-12-20T11:24:03;11.0;73.6
81140;SHT31;70624;51.978;5.656;2023-12-20T11:26:33;11.0;73.4
81140;SHT31;70624;51.978;5.656;2023-12-20T11:29:33;11.1;72.0
81140;SHT31;70624;51.978;5.656;2023-12-20T11:32:03;11.1;71.8
81140;SHT31;70624;51.978;5.656;2023-12-20T11:34:33;11.2;71.6
81140;SHT31;70624;51.978;5.656;2023-12-20T11:37:04;11.2;71.3
81140;SHT31;70624;51.978;5.656;2023-12-20T11:39:32;11.2;71.1
81140;SHT31;70624;51.978;5.656;2023-12-20T11:42:06;11.3;70.0
81140;SHT31;70624;51.978;5.656;2023-12-20T11:44:36;11.3;70.5
81140;SHT31;70624;51.978;5.656;2023-12-20T11:47:05;11.3;70.5
81140;SHT31;70624;51.978;5.656;2023-12-20T11:49:33;11.3;70.4
81140;SHT31;70624;51.978;5.656;2023-12-20T11:52:02;11.4;70.7
81140;SHT31;70624;51.978;5.656;2023-12-20T11:54:32;11.4;69.8
81140;SHT31;70624;51.978;5.656;2023-12-20T11:57:00;11.4;70.2
81140;SHT31;70624;51.978;5.656;2023-12-20T11:59:28;11.4;69.9
81140;SHT31;70624;51.978;5.656;2023-12-20T12:01:59;11.5;70.4
81140;SHT31;70624;51.978;5.656;2023-12-20T12:04:29;11.5;69.2
81140;SHT31;70624;51.978;5.656;2023-12-20T12:06:58;11.6;69.3
81140;SHT31;70624;51.978;5.656;2023-12-20T12:09:26;11.6;69.4
81140;SHT31;70624;51.978;5.656;2023-12-20T12:11:55;11.6;68.7
81140;SHT31;70624;51.978;5.656;2023-12-20T12:14:23;11.7;69.6
81140;SHT31;70624;51.978;5.656;2023-12-20T12:16:52;11.7;69.2
81140;SHT31;70624;51.978;5.656;2023-12-20T12:19:22;11.7;69.0
81140;SHT31;70624;51.978;5.656;2023-12-20T12:21:50;11.7;69.6
81140;SHT31;70624;51.978;5.656;2023-12-20T12:24:21;11.8;69.8
81140;SHT31;70624;51.978;5.656;2023-12-20T12:26:53;11.8;69.5
81140;SHT31;70624;51.978;5.656;2023-12-20T12:29:21;11.8;69.6
81140;SHT31;70624;51.978;5.656;2023-12-20T12:31:51;11.8;69.3
81140;SHT31;70624;51.978;5.656;2023-12-20T12:34:19;11.8;68.6
81140;SHT31;70624;51.978;5.656;2023-12-20T12:36:48;11.8;68.3
81140;SHT31;70624;51.978;5.656;2023-12-20T12:39:18;11.9;68.6
81140;SHT31;70624;51.978;5.656;2023-12-20T12:41:46;11.9;69.0
81140;SHT31;70624;51.978;5.656;2023-12-20T12:44:15;11.9;69.5
81140;SHT31;70624;51.978;5.656;2023-12-20T12:46:44;11.9;68.7
81140;SHT31;70624;51.978;5.656;2023-12-20T12:49:13;11.9;69.4
81140;SHT31;70624;51.978;5.656;2023-12-20T12:51:41;11.9;69.7
81140;SHT31;70624;51.978;5.656;2023-12-20T12:54:11;11.9;69.7
81140;SHT31;70624;51.978;5.656;2023-12-20T12:56:42;11.9;70.3
81140;SHT31;70624;51.978;5.656;2023-12-20T12:59:13;11.9;69.1
81140;SHT31;70624;51.978;5.656;2023-12-20T13:01:44;11.9;68.6
81140;SHT31;70624;51.978;5.656;2023-12-20T13:04:12;11.9;68.2
81140;SHT31;70624;51.978;5.656;2023-12-20T13:06:41;11.9;68.6
81140;SHT31;70624;51.978;5.656;2023-12-20T13:09:09;11.9;68.9
81140;SHT31;70624;51.978;5.656;2023-12-20T13:11:39;11.9;68.6
81140;SHT31;70624;51.978;5.656;2023-12-20T13:14:08;11.9;68.3
81140;SHT31;70624;51.978;5.656;2023-12-20T13:16:41;11.9;68.7
81140;SHT31;70624;51.978;5.656;2023-12-20T13:19:11;11.9;68.7
81140;SHT31;70624;51.978;5.656;2023-12-20T13:21:40;11.9;68.4
81140;SHT31;70624;51.978;5.656;2023-12-20T13:24:10;11.9;68.5
81140;SHT31;70624;51.978;5.656;2023-12-20T13:26:39;11.9;68.1
81140;SHT31;70624;51.978;5.656;2023-12-20T13:29:07;11.9;67.9
81140;SHT31;70624;51.978;5.656;2023-12-20T13:31:36;11.9;68.0
81140;SHT31;70624;51.978;5.656;2023-12-20T13:34:06;11.9;68.1
81140;SHT31;70624;51.978;5.656;2023-12-20T13:36:34;11.9;68.1
81140;SHT31;70624;51.978;5.656;2023-12-20T13:39:04;11.9;68.2
81140;SHT31;70624;51.978;5.656;2023-12-20T13:41:33;11.8;68.2
81140;SHT31;70624;51.978;5.656;2023-12-20T13:44:01;11.8;68.1
81140;SHT31;70624;51.978;5.656;2023-12-20T13:46:30;11.8;67.8
81140;SHT31;70624;51.978;5.656;2023-12-20T13:48:58;11.8;67.8
81140;SHT31;70624;51.978;5.656;2023-12-20T13:51:28;11.8;68.1
81140;SHT31;70624;51.978;5.656;2023-12-20T13:53:58;11.8;68.4
81140;SHT31;70624;51.978;5.656;2023-12-20T13:56:27;11.8;68.0
81140;SHT31;70624;51.978;5.656;2023-12-20T13:58:55;11.8;67.6
81140;SHT31;70624;51.978;5.656;2023-12-20T14:01:24;11.8;68.1
81140;SHT31;70624;51.978;5.656;2023-12-20T14:03:53;11.8;67.9
81140;SHT31;70624;51.978;5.656;2023-12-20T14:06:21;11.8;68.1
81140;SHT31;70624;51.978;5.656;2023-12-20T14:08:50;11.8;67.7
81140;SHT31;70624;51.978;5.656;2023-12-20T14:11:18;11.8;67.2
81140;SHT31;70624;51.978;5.656;2023-12-20T14:13:46;11.8;67.3
81140;SHT31;70624;51.978;5.656;2023-12-20T14:16:15;11.8;67.7
81140;SHT31;70624;51.978;5.656;2023-12-20T14:18:45;11.8;67.2
81140;SHT31;70624;51.978;5.656;2023-12-20T14:21:14;11.8;68.1
81140;SHT31;70624;51.978;5.656;2023-12-20T14:23:42;11.8;67.9
81140;SHT31;70624;51.978;5.656;2023-12-20T14:26:12;11.8;67.8
81140;SHT31;70624;51.978;5.656;2023-12-20T14:28:42;11.8;67.7
81140;SHT31;70624;51.978;5.656;2023-12-20T14:31:10;11.8;67.8
81140;SHT31;70624;51.978;5.656;2023-12-20T14:33:39;11.8;67.7
81140;SHT31;70624;51.978;5.656;2023-12-20T14:36:08;11.8;68.0
81140;SHT31;70624;51.978;5.656;2023-12-20T14:38:37;11.8;67.4
81140;SHT31;70624;51.978;5.656;2023-12-20T14:41:07;11.8;68.1
81140;SHT31;70624;51.978;5.656;2023-12-20T14:43:38;11.8;67.9
81140;SHT31;70624;51.978;5.656;2023-12-20T14:46:06;11.8;68.0
81140;SHT31;70624;51.978;5.656;2023-12-20T14:48:35;11.8;67.9
81140;SHT31;70624;51.978;5.656;2023-12-20T14:51:03;11.8;68.2
81140;SHT31;70624;51.978;5.656;2023-12-20T14:53:32;11.8;68.8
81140;SHT31;70624;51.978;5.656;2023-12-20T14:56:02;11.8;68.2
81140;SHT31;70624;51.978;5.656;2023-12-20T14:58:32;11.8;68.5
81140;SHT31;70624;51.978;5.656;2023-12-20T15:01:01;11.8;68.1
81140;SHT31;70624;51.978;5.656;2023-12-20T15:03:29;11.8;68.0
81140;SHT31;70624;51.978;5.656;2023-12-20T15:05:58;11.7;67.8
81140;SHT31;70624;51.978;5.656;2023-12-20T15:08:26;11.7;68.2
81140;SHT31;70624;51.978;5.656;2023-12-20T15:10:55;11.7;68.2
81140;SHT31;70624;51.978;5.656;2023-12-20T15:13:24;11.7;68.2
81140;SHT31;70624;51.978;5.656;2023-12-20T15:15:52;11.7;68.7
81140;SHT31;70624;51.978;5.656;2023-12-20T15:18:21;11.7;68.7
81140;SHT31;70624;51.978;5.656;2023-12-20T15:20:49;11.7;69.0
81140;SHT31;70624;51.978;5.656;2023-12-20T15:23:17;11.6;69.1
81140;SHT31;70624;51.978;5.656;2023-12-20T15:25:48;11.6;69.0
81140;SHT31;70624;51.978;5.656;2023-12-20T15:28:16;11.6;69.0
81140;SHT31;70624;51.978;5.656;2023-12-20T15:30:45;11.6;69.2
81140;SHT31;70624;51.978;5.656;2023-12-20T15:33:13;11.6;69.2
81140;SHT31;70624;51.978;5.656;2023-12-20T15:35:42;11.6;69.5
81140;SHT31;70624;51.978;5.656;2023-12-20T15:38:10;11.5;69.2
81140;SHT31;70624;51.978;5.656;2023-12-20T15:40:39;11.5;69.9
81140;SHT31;70624;51.978;5.656;2023-12-20T15:43:07;11.5;70.4
81140;SHT31;70624;51.978;5.656;2023-12-20T15:45:35;11.5;70.7
81140;SHT31;70624;51.978;5.656;2023-12-20T15:48:04;11.5;71.1
81140;SHT31;70624;51.978;5.656;2023-12-20T15:50:33;11.5;70.8
81140;SHT31;70624;51.978;5.656;2023-12-20T15:53:02;11.4;71.6
81140;SHT31;70624;51.978;5.656;2023-12-20T15:55:31;11.4;71.3
81140;SHT31;70624;51.978;5.656;2023-12-20T15:57:59;11.4;71.7
81140;SHT31;70624;51.978;5.656;2023-12-20T16:00:28;11.4;71.7
81140;SHT31;70624;51.978;5.656;2023-12-20T16:02:57;11.3;72.4
81140;SHT31;70624;51.978;5.656;2023-12-20T16:05:25;11.3;72.4
81140;SHT31;70624;51.978;5.656;2023-12-20T16:07:54;11.3;72.6
81140;SHT31;70624;51.978;5.656;2023-12-20T16:10:24;11.3;72.4
81140;SHT31;70624;51.978;5.656;2023-12-20T16:12:52;11.3;72.4
81140;SHT31;70624;51.978;5.656;2023-12-20T16:15:24;11.2;72.5
81140;SHT31;70624;51.978;5.656;2023-12-20T16:17:52;11.2;72.8
81140;SHT31;70624;51.978;5.656;2023-12-20T16:20:23;11.2;72.9
81140;SHT31;70624;51.978;5.656;2023-12-20T16:22:51;11.1;73.4